Latest Coastal Weather Observations for Evans Head

IDN60701

Issued at 10:05 pm EST Wednesday 23 April 2014 (issued every 10 minutes, with the page automatically refreshed every 10 minutes)

About coastal observations | Map of coastal stations | Coastal observations for NSW | Marine services | Other Formats
Station Details ID: 058212 Name: EVANS HEAD RAAF BOMBING RANGE AWS Lat: -29.18 Lon: 153.40 Height: 62.5 m
Data from the previous 72 hours. | See also: Recent months at Evans Head
Date/Time
EST
Temp

°C
Wind Pressure Rain
since 9am
mm
Weather Cloud Vis
km
Sea
Height
m
Swell
Dir
 
Speed
knots
Gust
knots
hPa Trend Height
m
Period
s
Dir
23/10:00pm 18.6 N 9 12 1017.1 - 0.0 - - - - - - -
23/09:30pm 18.9 N 8 10 1017.2 - 0.0 - - - - - - -
23/09:00pm 19.1 N 7 11 1017.0 - 0.0 - - - - - - -
23/08:30pm 19.6 N 9 12 1017.2 - 0.0 - - - - - - -
23/08:00pm 19.4 N 8 11 1017.1 - 0.0 - - - - - - -
23/07:30pm 19.7 N 8 11 1016.9 - 0.0 - - - - - - -
23/07:00pm 20.0 N 8 10 1016.8 - 0.0 - - - - - - -
23/06:30pm 20.5 N 7 9 1016.6 - 0.0 - - - - - - -
23/06:00pm 20.4 N 7 9 1016.1 - 0.0 - - - - - - -
23/05:30pm 20.7 NNE 6 9 1016.1 - 0.0 - - - - - - -
23/05:00pm 21.7 NNE 7 11 1015.7 - 0.0 - - - - - - -
23/04:30pm 23.2 NNE 8 13 1015.5 - 0.0 - - - - - - -
23/04:00pm 24.4 NNE 6 10 1015.7 - 0.0 - - - - - - -
23/03:30pm 25.2 NNE 6 10 1015.9 - 0.0 - - - - - - -
23/03:00pm 25.9 NE 7 11 1015.7 - 0.0 - - - - - - -
23/02:30pm 26.3 NE 6 10 1016.0 - 0.0 - - - - - - -
23/02:00pm 24.9 ENE 9 13 1016.0 - 0.0 - - - - - - -
23/01:30pm 24.8 E 8 11 1016.1 - 0.0 - - - - - - -
23/01:00pm 24.8 E 7 10 1016.3 - 0.0 - - - - - - -
23/12:30pm 25.3 E 7 10 1016.8 - 0.0 - - - - - - -
23/12:00pm 25.0 ESE 7 9 1017.1 - 0.0 - - - - - - -
23/11:30am 26.4 E 2 6 1017.8 - 0.0 - - - - - - -
23/11:00am 26.9 W 3 7 1018.3 - 0.0 - - - - - - -
23/10:30am 26.3 WNW 5 8 1018.9 - 0.0 - - - - - - -
23/10:00am 25.7 WNW 6 10 1019.1 - 0.0 - - - - - - -
23/09:30am 24.6 NW 7 12 1019.4 - 0.0 - - - - - - -
23/09:00am 23.4 W 5 7 1019.3 - 0.0 - - - - - - -
23/08:30am 22.7 WNW 6 10 1019.5 - 0.0 - - - - - - -
23/08:00am 21.1 NNW 5 7 1019.2 - 0.0 - - - - - - -
23/07:30am 18.6 NNW 5 6 1019.1 - 0.0 - - - - - - -
23/07:00am 16.6 NNW 6 8 1019.1 - 0.0 - - - - - - -
23/06:30am 15.5 NNW 6 8 1019.0 - 0.0 - - - - - - -
23/06:00am 15.6 NNW 5 6 1018.4 - 0.0 - - - - - - -
23/05:30am 15.6 N 6 6 1018.4 - 0.0 - - - - - - -
23/05:00am 15.7 N 6 8 1018.1 - 0.0 - - - - - - -
23/04:30am 15.7 N 5 7 1018.0 - 0.0 - - - - - - -
23/04:00am 15.8 N 5 6 1017.8 - 0.0 - - - - - - -
23/03:30am 16.2 NNW 5 6 1017.8 - 0.0 - - - - - - -
23/03:00am 16.4 NNW 5 6 1017.6 - 0.0 - - - - - - -
23/02:30am 16.5 NNW 4 5 1018.0 - 0.0 - - - - - - -
23/02:00am 16.8 N 5 6 1018.0 - 0.0 - - - - - - -
23/01:30am 16.6 NNW 5 7 1018.4 - 0.0 - - - - - - -
23/01:00am 16.6 NNW 5 7 1018.5 - 0.0 - - - - - - -
23/12:30am 16.7 NNW 5 6 1018.5 - 0.0 - - - - - - -
23/12:00am 16.8 N 5 6 1018.4 - 0.0 - - - - - - -
 
Date/Time
EST
Temp

°C
Wind Pressure Rain
since 9am
mm
Weather Cloud Vis
km
Sea
Height
m
Swell
Dir
 
Speed
knots
Gust
knots
hPa Trend Height
m
Period
s
Dir
22/11:30pm 17.0 N 6 7 1018.8 - 0.0 - - - - - - -
22/11:00pm 17.3 N 7 8 1018.9 - 0.0 - - - - - - -
22/10:30pm 17.8 N 7 9 1019.0 - 0.0 - - - - - - -
22/10:00pm 18.5 N 8 10 1018.9 - 0.0 - - - - - - -
22/09:30pm 18.8 N 7 11 1019.0 - 0.0 - - - - - - -
22/09:00pm 19.3 N 9 13 1018.7 - 0.0 - - - - - - -
22/08:30pm 19.3 N 10 15 1018.9 - 0.0 - - - - - - -
22/08:00pm 19.7 N 9 12 1018.9 - 0.0 - - - - - - -
22/07:30pm 20.2 N 10 18 1018.7 - 0.0 - - - - - - -
22/07:00pm 20.8 N 11 19 1018.6 - 0.0 - - - - - - -
22/06:30pm 21.0 N 11 16 1018.3 - 0.0 - - - - - - -
22/06:00pm 21.1 N 10 15 1018.0 - 0.0 - - - - - - -
22/05:30pm 21.3 N 10 15 1017.9 - 0.0 - - - - - - -
22/05:00pm 22.1 N 11 16 1017.7 - 0.0 - - - - - - -
22/04:30pm 23.0 N 12 16 1017.8 - 0.0 - - - - - - -
22/04:00pm 24.1 N 12 18 1017.8 - 0.0 - - - - - - -
22/03:30pm 24.9 N 10 17 1018.0 - 0.0 - - - - - - -
22/03:00pm 25.5 N 11 19 1017.8 - 0.0 - - - - - - -
22/02:30pm 25.6 N 11 18 1018.0 - 0.0 - - - - - - -
22/02:00pm 26.0 N 10 17 1017.9 - 0.0 - - - - - - -
22/01:30pm 27.1 NNE 8 13 1018.3 - 0.0 - - - - - - -
22/01:00pm 25.7 ENE 9 12 1018.7 - 0.0 - - - - - - -
22/12:30pm 25.8 ENE 8 11 1019.3 - 0.0 - - - - - - -
22/12:00pm 28.2 NNW 5 10 1019.7 - 0.0 - - - - - - -
22/11:30am 27.6 NNW 3 7 1020.2 - 0.0 - - - - - - -
22/11:00am 27.1 N 3 7 1020.5 - 0.0 - - - - - - -
22/10:30am 26.3 NNW 3 7 1020.8 - 0.0 - - - - - - -
22/10:00am 25.7 N 5 9 1021.1 - 0.0 - - - - - - -
22/09:30am 25.8 N 7 11 1021.5 - 0.0 - - - - - - -
22/09:00am 24.8 NNW 6 9 1021.4 - 0.0 - - - - - - -
22/08:30am 23.9 NNW 5 8 1021.5 - 0.0 - - - - - - -
22/08:00am 22.1 NNW 5 7 1021.5 - 0.0 - - - - - - -
22/07:30am 20.0 NNW 5 7 1021.2 - 0.0 - - - - - - -
22/07:00am 18.3 NNW 4 5 1021.1 - 0.0 - - - - - - -
22/06:30am 17.3 NNW 5 6 1020.8 - 0.0 - - - - - - -
22/06:00am 17.3 NW 6 9 1020.4 - 0.0 - - - - - - -
22/05:30am 17.1 NNW 6 7 1020.4 - 0.0 - - - - - - -
22/05:00am 18.4 NW 5 7 1020.2 - 0.0 - - - - - - -
22/04:30am 19.4 W 5 5 1020.2 - 0.0 - - - - - - -
22/04:00am 18.9 W 5 5 1020.0 - 0.0 - - - - - - -
22/03:30am 17.3 NNW 4 5 1019.8 - 0.0 - - - - - - -
22/03:00am 16.9 NNW 5 5 1019.5 - 0.0 - - - - - - -
22/02:30am 16.7 NNW 6 7 1019.7 - 0.0 - - - - - - -
22/02:00am 16.7 NNW 5 6 1019.6 - 0.0 - - - - - - -
22/01:30am 17.0 NNW 5 6 1019.7 - 0.0 - - - - - - -
22/01:00am 17.3 NNW 5 6 1019.8 - 0.0 - - - - - - -
22/12:30am 17.6 N 5 6 1019.9 - 0.0 - - - - - - -
22/12:00am 17.7 NNW 6 9 1019.6 - 0.0 - - - - - - -
 
Date/Time
EST
Temp

°C
Wind Pressure Rain
since 9am
mm
Weather Cloud Vis
km
Sea
Height
m
Swell
Dir
 
Speed
knots
Gust
knots
hPa Trend Height
m
Period
s
Dir
21/11:30pm 18.2 N 6 7 1019.8 - 0.0 - - - - - - -
21/11:00pm 18.9 N 8 11 1019.9 - 0.0 - - - - - - -
21/10:30pm 19.0 N 9 13 1019.9 - 0.0 - - - - - - -
21/10:00pm 19.0 N 7 12 1019.7 - 0.0 - - - - - - -
21/09:30pm 19.0 N 8 11 1019.7 - 0.0 - - - - - - -
21/09:00pm 19.7 N 10 13 1019.2 - 0.0 - - - - - - -
21/08:30pm 20.1 N 10 13 1019.3 - 0.0 - - - - - - -
21/08:00pm 20.8 N 11 17 1019.0 - 0.0 - - - - - - -
21/07:30pm 20.9 CALM 0 0 1018.9 - 0.0 - - - - - - -
21/07:00pm 21.2 CALM 0 0 1018.6 - 0.0 - - - - - - -
21/06:30pm 21.4 CALM 0 0 1018.4 - 0.0 - - - - - - -
21/06:00pm 21.4 CALM 0 0 1017.8 - 0.0 - - - - - - -
21/05:30pm 21.9 CALM 0 0 1017.8 - 0.0 - - - - - - -
21/05:00pm 22.7 CALM 0 0 1017.6 - 0.0 - - - - - - -
21/04:30pm 24.0 CALM 0 0 1017.4 - 0.0 - - - - - - -
21/04:00pm 24.9 CALM 0 0 1017.3 - 0.0 - - - - - - -
21/03:30pm 26.0 CALM 0 0 1017.2 - 0.0 - - - - - - -
21/03:00pm 26.0 CALM 0 0 1017.2 - 0.0 - - - - - - -
21/02:30pm 26.6 CALM 0 0 1017.5 - 0.0 - - - - - - -
21/02:00pm 25.8 CALM 0 0 1017.7 - 0.0 - - - - - - -
21/01:30pm 26.5 CALM 0 0 1017.9 - 0.0 - - - - - - -
21/01:00pm 27.5 CALM 0 0 1018.1 - 0.0 - - - - - - -
21/12:30pm 28.7 CALM 0 0 1018.5 - 0.0 - - - - - - -
21/12:00pm 29.0 CALM 0 0 1018.9 - 0.0 - - - - - - -
21/11:30am 27.8 CALM 0 0 1019.6 - 0.0 - - - - - - -
21/11:00am 27.7 CALM 0 0 1020.0 - 0.0 - - - - - - -
21/10:30am 26.8 CALM 0 0 1020.3 - 0.0 - - - - - - -
21/10:00am 25.6 CALM 0 0 1020.5 - 0.0 - - - - - - -
21/09:30am 24.6 CALM 0 0 1020.6 - 0.0 - - - - - - -
21/09:00am 23.1 CALM 0 0 1020.4 - 0.0 - - - - - - -
21/08:30am 21.8 CALM 0 0 1020.5 - 0.0 - - - - - - -
21/08:00am 20.6 CALM 0 0 1020.4 - 0.0 - - - - - - -
21/07:30am 19.3 CALM 0 0 1020.0 - 0.0 - - - - - - -
21/07:00am 16.9 CALM 0 0 1019.7 - 0.0 - - - - - - -
21/06:30am 16.9 CALM 0 0 1019.3 - 0.0 - - - - - - -
21/06:00am 15.5 CALM 0 0 1018.8 - 0.0 - - - - - - -
21/05:30am 16.1 CALM 0 0 1018.8 - 0.0 - - - - - - -
21/05:00am 17.1 CALM 0 0 1018.7 - 0.0 - - - - - - -
21/04:30am 17.0 CALM 0 0 1018.3 - 0.0 - - - - - - -
21/04:00am 18.0 CALM 0 0 1018.1 - 0.0 - - - - - - -
21/03:30am 17.8 CALM 0 0 1017.8 - 0.0 - - - - - - -
21/03:00am 17.4 CALM 0 0 1017.5 - 0.0 - - - - - - -
21/02:30am 18.0 CALM 0 0 1017.6 - 0.0 - - - - - - -
21/02:00am 17.3 CALM 0 0 1017.9 - 0.0 - - - - - - -
21/01:30am 16.5 CALM 0 0 1017.9 - 0.0 - - - - - - -
21/01:00am 16.6 CALM 0 0 1017.9 - 0.0 - - - - - - -
21/12:30am 16.7 CALM 0 0 1017.8 - 0.0 - - - - - - -
21/12:00am 17.1 CALM 0 0 1017.7 - 0.0 - - - - - - -
 
Date/Time
EST
Temp

°C
Wind Pressure Rain
since 9am
mm
Weather Cloud Vis
km
Sea
Height
m
Swell
Dir
 
Speed
knots
Gust
knots
hPa Trend Height
m
Period
s
Dir
20/11:30pm 17.2 CALM 0 0 1017.7 - 0.0 - - - - - - -
20/11:00pm 17.2 CALM 0 0 1017.8 - 0.0 - - - - - - -
20/10:30pm 18.0 CALM 0 0 1017.9 - 0.0 - - - - - - -

Other Formats:

Comma delimited format used in spreadsheet applications
http://www.bom.gov.au/fwo/IDN60701/IDN60701.94598.axf

JavaScript Object Notation format (JSON) in row-major order
http://www.bom.gov.au/fwo/IDN60701/IDN60701.94598.json